sensor_id;sensor_type;location;lat;lon;timestamp;P1;durP1;ratioP1;P2;durP2;ratioP2
36257;SDS011;22294;52.044;4.582;2022-09-09T00:01:51;5.15;;;4.13;;
36257;SDS011;22294;52.044;4.582;2022-09-09T00:04:31;9.25;;;4.32;;
36257;SDS011;22294;52.044;4.582;2022-09-09T00:09:53;11.23;;;5.07;;
36257;SDS011;22294;52.044;4.582;2022-09-09T00:17:52;5.88;;;4.53;;
36257;SDS011;22294;52.044;4.582;2022-09-09T00:23:12;9.07;;;5.22;;
36257;SDS011;22294;52.044;4.582;2022-09-09T00:25:54;9.18;;;5.70;;
36257;SDS011;22294;52.044;4.582;2022-09-09T00:28:43;8.98;;;5.63;;
36257;SDS011;22294;52.044;4.582;2022-09-09T00:31:16;8.15;;;5.63;;
36257;SDS011;22294;52.044;4.582;2022-09-09T00:33:47;10.32;;;6.63;;
36257;SDS011;22294;52.044;4.582;2022-09-09T00:36:15;12.05;;;6.75;;
36257;SDS011;22294;52.044;4.582;2022-09-09T00:38:46;11.68;;;6.55;;
36257;SDS011;22294;52.044;4.582;2022-09-09T00:41:26;9.70;;;6.47;;
36257;SDS011;22294;52.044;4.582;2022-09-09T00:46:49;11.98;;;6.30;;
36257;SDS011;22294;52.044;4.582;2022-09-09T00:49:24;9.15;;;6.72;;
36257;SDS011;22294;52.044;4.582;2022-09-09T00:55:28;10.90;;;6.88;;
36257;SDS011;22294;52.044;4.582;2022-09-09T00:57:57;11.65;;;6.95;;
36257;SDS011;22294;52.044;4.582;2022-09-09T01:00:29;12.32;;;7.28;;
36257;SDS011;22294;52.044;4.582;2022-09-09T01:05:37;12.15;;;7.22;;
36257;SDS011;22294;52.044;4.582;2022-09-09T01:08:18;10.18;;;7.38;;
36257;SDS011;22294;52.044;4.582;2022-09-09T01:10:56;10.93;;;7.63;;
36257;SDS011;22294;52.044;4.582;2022-09-09T01:13:29;10.40;;;7.57;;
36257;SDS011;22294;52.044;4.582;2022-09-09T01:16:00;12.73;;;8.18;;
36257;SDS011;22294;52.044;4.582;2022-09-09T01:18:30;13.85;;;7.50;;
36257;SDS011;22294;52.044;4.582;2022-09-09T01:26:21;10.60;;;7.38;;
36257;SDS011;22294;52.044;4.582;2022-09-09T01:28:52;11.00;;;7.07;;
36257;SDS011;22294;52.044;4.582;2022-09-09T01:31:19;10.45;;;7.70;;
36257;SDS011;22294;52.044;4.582;2022-09-09T01:33:47;10.20;;;7.10;;
36257;SDS011;22294;52.044;4.582;2022-09-09T01:36:34;15.38;;;7.95;;
36257;SDS011;22294;52.044;4.582;2022-09-09T01:39:15;12.38;;;7.00;;
36257;SDS011;22294;52.044;4.582;2022-09-09T01:41:41;11.57;;;7.50;;
36257;SDS011;22294;52.044;4.582;2022-09-09T01:44:06;10.27;;;7.20;;
36257;SDS011;22294;52.044;4.582;2022-09-09T01:46:33;11.02;;;6.65;;
36257;SDS011;22294;52.044;4.582;2022-09-09T01:48:58;10.60;;;7.15;;
36257;SDS011;22294;52.044;4.582;2022-09-09T01:51:25;10.63;;;6.70;;
36257;SDS011;22294;52.044;4.582;2022-09-09T01:53:51;11.43;;;7.00;;
36257;SDS011;22294;52.044;4.582;2022-09-09T01:56:26;10.25;;;6.68;;
36257;SDS011;22294;52.044;4.582;2022-09-09T02:01:58;9.13;;;5.88;;
36257;SDS011;22294;52.044;4.582;2022-09-09T02:07:41;9.73;;;5.65;;
36257;SDS011;22294;52.044;4.582;2022-09-09T02:10:21;11.27;;;5.57;;
36257;SDS011;22294;52.044;4.582;2022-09-09T02:12:53;7.28;;;5.00;;
36257;SDS011;22294;52.044;4.582;2022-09-09T02:15:26;9.75;;;4.80;;
36257;SDS011;22294;52.044;4.582;2022-09-09T02:17:57;10.88;;;4.75;;
36257;SDS011;22294;52.044;4.582;2022-09-09T02:20:24;8.15;;;4.47;;
36257;SDS011;22294;52.044;4.582;2022-09-09T02:22:52;4.88;;;3.97;;
36257;SDS011;22294;52.044;4.582;2022-09-09T02:25:19;5.80;;;4.30;;
36257;SDS011;22294;52.044;4.582;2022-09-09T02:27:47;9.85;;;4.60;;
36257;SDS011;22294;52.044;4.582;2022-09-09T02:30:16;8.32;;;4.32;;
36257;SDS011;22294;52.044;4.582;2022-09-09T02:32:42;9.57;;;4.60;;
36257;SDS011;22294;52.044;4.582;2022-09-09T02:35:11;7.85;;;4.28;;
36257;SDS011;22294;52.044;4.582;2022-09-09T02:37:39;10.85;;;4.88;;
36257;SDS011;22294;52.044;4.582;2022-09-09T02:40:07;10.38;;;4.80;;
36257;SDS011;22294;52.044;4.582;2022-09-09T02:42:38;11.35;;;4.53;;
36257;SDS011;22294;52.044;4.582;2022-09-09T02:45:08;9.98;;;4.80;;
36257;SDS011;22294;52.044;4.582;2022-09-09T02:47:35;8.98;;;4.75;;
36257;SDS011;22294;52.044;4.582;2022-09-09T02:50:14;7.40;;;4.22;;
36257;SDS011;22294;52.044;4.582;2022-09-09T02:55:47;9.15;;;5.18;;
36257;SDS011;22294;52.044;4.582;2022-09-09T02:58:19;7.68;;;4.65;;
36257;SDS011;22294;52.044;4.582;2022-09-09T03:00:46;7.93;;;4.93;;
36257;SDS011;22294;52.044;4.582;2022-09-09T03:03:13;11.05;;;4.88;;
36257;SDS011;22294;52.044;4.582;2022-09-09T03:05:41;10.65;;;5.32;;
36257;SDS011;22294;52.044;4.582;2022-09-09T03:08:07;10.25;;;5.10;;
36257;SDS011;22294;52.044;4.582;2022-09-09T03:10:34;6.82;;;5.55;;
36257;SDS011;22294;52.044;4.582;2022-09-09T03:12:59;11.45;;;5.30;;
36257;SDS011;22294;52.044;4.582;2022-09-09T03:15:25;9.02;;;5.10;;
36257;SDS011;22294;52.044;4.582;2022-09-09T03:17:54;11.40;;;5.43;;
36257;SDS011;22294;52.044;4.582;2022-09-09T03:20:20;12.13;;;5.75;;
36257;SDS011;22294;52.044;4.582;2022-09-09T03:22:45;9.30;;;4.97;;
36257;SDS011;22294;52.044;4.582;2022-09-09T03:25:10;8.85;;;5.47;;
36257;SDS011;22294;52.044;4.582;2022-09-09T03:27:35;13.20;;;8.27;;
36257;SDS011;22294;52.044;4.582;2022-09-09T03:30:01;12.23;;;6.20;;
36257;SDS011;22294;52.044;4.582;2022-09-09T03:32:28;10.35;;;5.38;;
36257;SDS011;22294;52.044;4.582;2022-09-09T03:34:54;8.63;;;4.82;;
36257;SDS011;22294;52.044;4.582;2022-09-09T03:37:19;9.65;;;5.25;;
36257;SDS011;22294;52.044;4.582;2022-09-09T03:39:45;10.52;;;4.28;;
36257;SDS011;22294;52.044;4.582;2022-09-09T03:42:13;7.70;;;4.18;;
36257;SDS011;22294;52.044;4.582;2022-09-09T03:44:39;8.60;;;4.13;;
36257;SDS011;22294;52.044;4.582;2022-09-09T03:47:06;10.15;;;4.22;;
36257;SDS011;22294;52.044;4.582;2022-09-09T03:49:32;6.93;;;4.55;;
36257;SDS011;22294;52.044;4.582;2022-09-09T03:51:57;7.33;;;4.60;;
36257;SDS011;22294;52.044;4.582;2022-09-09T03:54:24;9.63;;;4.30;;
36257;SDS011;22294;52.044;4.582;2022-09-09T03:56:50;7.22;;;4.32;;
36257;SDS011;22294;52.044;4.582;2022-09-09T03:59:15;7.00;;;4.10;;
36257;SDS011;22294;52.044;4.582;2022-09-09T04:01:41;11.43;;;4.00;;
36257;SDS011;22294;52.044;4.582;2022-09-09T04:04:06;8.48;;;3.80;;
36257;SDS011;22294;52.044;4.582;2022-09-09T04:06:32;9.65;;;3.90;;
36257;SDS011;22294;52.044;4.582;2022-09-09T04:08:57;8.55;;;4.30;;
36257;SDS011;22294;52.044;4.582;2022-09-09T04:11:23;6.22;;;3.75;;
36257;SDS011;22294;52.044;4.582;2022-09-09T04:13:48;9.75;;;3.72;;
36257;SDS011;22294;52.044;4.582;2022-09-09T04:16:14;9.82;;;3.55;;
36257;SDS011;22294;52.044;4.582;2022-09-09T04:18:39;7.93;;;3.53;;
36257;SDS011;22294;52.044;4.582;2022-09-09T04:21:05;8.50;;;3.58;;
36257;SDS011;22294;52.044;4.582;2022-09-09T04:23:33;6.65;;;3.13;;
36257;SDS011;22294;52.044;4.582;2022-09-09T04:25:59;7.15;;;3.50;;
36257;SDS011;22294;52.044;4.582;2022-09-09T04:28:28;6.97;;;2.88;;
36257;SDS011;22294;52.044;4.582;2022-09-09T04:30:55;8.02;;;2.47;;
36257;SDS011;22294;52.044;4.582;2022-09-09T04:33:23;9.40;;;3.13;;
36257;SDS011;22294;52.044;4.582;2022-09-09T04:35:50;13.90;;;3.13;;
36257;SDS011;22294;52.044;4.582;2022-09-09T04:38:18;7.13;;;2.33;;
36257;SDS011;22294;52.044;4.582;2022-09-09T04:40:47;12.77;;;3.03;;
36257;SDS011;22294;52.044;4.582;2022-09-09T04:43:12;9.20;;;2.78;;
36257;SDS011;22294;52.044;4.582;2022-09-09T04:45:39;8.27;;;3.42;;
36257;SDS011;22294;52.044;4.582;2022-09-09T04:48:05;8.32;;;2.67;;
36257;SDS011;22294;52.044;4.582;2022-09-09T04:50:31;7.00;;;2.38;;
36257;SDS011;22294;52.044;4.582;2022-09-09T04:52:59;6.43;;;2.60;;
36257;SDS011;22294;52.044;4.582;2022-09-09T04:55:25;7.75;;;2.63;;
36257;SDS011;22294;52.044;4.582;2022-09-09T04:57:51;10.13;;;3.35;;
36257;SDS011;22294;52.044;4.582;2022-09-09T05:00:16;8.82;;;2.95;;
36257;SDS011;22294;52.044;4.582;2022-09-09T05:02:42;11.20;;;3.78;;
36257;SDS011;22294;52.044;4.582;2022-09-09T05:05:07;4.95;;;2.65;;
36257;SDS011;22294;52.044;4.582;2022-09-09T05:07:33;8.00;;;3.35;;
36257;SDS011;22294;52.044;4.582;2022-09-09T05:09:58;9.50;;;3.50;;
36257;SDS011;22294;52.044;4.582;2022-09-09T05:12:24;10.20;;;3.58;;
36257;SDS011;22294;52.044;4.582;2022-09-09T05:14:50;7.28;;;3.25;;
36257;SDS011;22294;52.044;4.582;2022-09-09T05:17:16;8.18;;;3.40;;
36257;SDS011;22294;52.044;4.582;2022-09-09T05:19:41;8.52;;;3.65;;
36257;SDS011;22294;52.044;4.582;2022-09-09T05:22:08;7.03;;;3.10;;
36257;SDS011;22294;52.044;4.582;2022-09-09T05:24:33;9.43;;;3.42;;
36257;SDS011;22294;52.044;4.582;2022-09-09T05:26:59;8.57;;;3.10;;
36257;SDS011;22294;52.044;4.582;2022-09-09T05:29:26;9.50;;;3.55;;
36257;SDS011;22294;52.044;4.582;2022-09-09T05:31:52;10.38;;;3.10;;
36257;SDS011;22294;52.044;4.582;2022-09-09T05:34:17;6.73;;;3.00;;
36257;SDS011;22294;52.044;4.582;2022-09-09T05:36:43;9.20;;;3.00;;
36257;SDS011;22294;52.044;4.582;2022-09-09T05:39:08;8.35;;;3.33;;
36257;SDS011;22294;52.044;4.582;2022-09-09T05:41:33;8.98;;;2.95;;
36257;SDS011;22294;52.044;4.582;2022-09-09T05:44:00;8.40;;;3.47;;
36257;SDS011;22294;52.044;4.582;2022-09-09T05:46:26;8.48;;;3.75;;
36257;SDS011;22294;52.044;4.582;2022-09-09T05:48:51;13.00;;;3.50;;
36257;SDS011;22294;52.044;4.582;2022-09-09T05:51:19;8.38;;;3.30;;
36257;SDS011;22294;52.044;4.582;2022-09-09T05:53:47;11.63;;;3.25;;
36257;SDS011;22294;52.044;4.582;2022-09-09T05:58:40;7.63;;;3.60;;
36257;SDS011;22294;52.044;4.582;2022-09-09T06:01:12;9.90;;;3.50;;
36257;SDS011;22294;52.044;4.582;2022-09-09T06:03:40;8.70;;;2.40;;
36257;SDS011;22294;52.044;4.582;2022-09-09T06:06:07;8.95;;;2.70;;
36257;SDS011;22294;52.044;4.582;2022-09-09T06:08:35;10.70;;;2.58;;
36257;SDS011;22294;52.044;4.582;2022-09-09T06:11:08;17.88;;;3.08;;
36257;SDS011;22294;52.044;4.582;2022-09-09T06:13:36;8.50;;;2.47;;
36257;SDS011;22294;52.044;4.582;2022-09-09T06:16:14;10.23;;;3.03;;
36257;SDS011;22294;52.044;4.582;2022-09-09T06:18:41;19.02;;;2.88;;
36257;SDS011;22294;52.044;4.582;2022-09-09T06:21:09;9.57;;;2.10;;
36257;SDS011;22294;52.044;4.582;2022-09-09T06:23:39;11.90;;;2.60;;
36257;SDS011;22294;52.044;4.582;2022-09-09T06:26:09;10.73;;;3.03;;
36257;SDS011;22294;52.044;4.582;2022-09-09T06:28:36;15.18;;;2.80;;
36257;SDS011;22294;52.044;4.582;2022-09-09T06:31:05;10.23;;;2.45;;
36257;SDS011;22294;52.044;4.582;2022-09-09T06:33:34;15.13;;;2.67;;
36257;SDS011;22294;52.044;4.582;2022-09-09T06:36:01;12.10;;;2.92;;
36257;SDS011;22294;52.044;4.582;2022-09-09T06:38:28;10.20;;;2.97;;
36257;SDS011;22294;52.044;4.582;2022-09-09T06:40:54;9.27;;;2.75;;
36257;SDS011;22294;52.044;4.582;2022-09-09T06:43:21;8.65;;;2.90;;
36257;SDS011;22294;52.044;4.582;2022-09-09T06:46:02;11.00;;;2.53;;
36257;SDS011;22294;52.044;4.582;2022-09-09T06:48:29;7.95;;;2.67;;
36257;SDS011;22294;52.044;4.582;2022-09-09T06:51:05;7.05;;;2.30;;
36257;SDS011;22294;52.044;4.582;2022-09-09T06:53:34;8.63;;;3.20;;
36257;SDS011;22294;52.044;4.582;2022-09-09T06:56:22;9.20;;;3.00;;
36257;SDS011;22294;52.044;4.582;2022-09-09T06:58:53;13.73;;;2.97;;
36257;SDS011;22294;52.044;4.582;2022-09-09T07:01:20;10.38;;;3.20;;
36257;SDS011;22294;52.044;4.582;2022-09-09T07:03:48;9.80;;;3.13;;
36257;SDS011;22294;52.044;4.582;2022-09-09T07:06:22;11.52;;;3.53;;
36257;SDS011;22294;52.044;4.582;2022-09-09T07:08:52;10.68;;;3.03;;
36257;SDS011;22294;52.044;4.582;2022-09-09T07:11:23;8.60;;;3.15;;
36257;SDS011;22294;52.044;4.582;2022-09-09T07:13:56;12.27;;;3.63;;
36257;SDS011;22294;52.044;4.582;2022-09-09T07:16:23;14.63;;;3.20;;
36257;SDS011;22294;52.044;4.582;2022-09-09T07:18:49;7.75;;;3.28;;
36257;SDS011;22294;52.044;4.582;2022-09-09T07:21:15;11.52;;;3.22;;
36257;SDS011;22294;52.044;4.582;2022-09-09T07:23:41;10.50;;;3.00;;
36257;SDS011;22294;52.044;4.582;2022-09-09T07:26:08;12.98;;;4.05;;
36257;SDS011;22294;52.044;4.582;2022-09-09T07:28:40;10.40;;;3.70;;
36257;SDS011;22294;52.044;4.582;2022-09-09T07:31:07;8.43;;;3.20;;
36257;SDS011;22294;52.044;4.582;2022-09-09T07:33:38;12.93;;;3.53;;
36257;SDS011;22294;52.044;4.582;2022-09-09T07:36:05;11.30;;;3.30;;
36257;SDS011;22294;52.044;4.582;2022-09-09T07:38:41;15.43;;;3.63;;
36257;SDS011;22294;52.044;4.582;2022-09-09T07:41:10;7.82;;;3.03;;
36257;SDS011;22294;52.044;4.582;2022-09-09T07:43:41;8.40;;;3.42;;
36257;SDS011;22294;52.044;4.582;2022-09-09T07:46:08;11.73;;;3.78;;
36257;SDS011;22294;52.044;4.582;2022-09-09T07:48:34;11.23;;;4.22;;
36257;SDS011;22294;52.044;4.582;2022-09-09T07:51:04;14.45;;;4.20;;
36257;SDS011;22294;52.044;4.582;2022-09-09T07:53:31;9.48;;;4.20;;
36257;SDS011;22294;52.044;4.582;2022-09-09T07:56:02;11.45;;;4.20;;
36257;SDS011;22294;52.044;4.582;2022-09-09T07:58:29;11.95;;;4.32;;
36257;SDS011;22294;52.044;4.582;2022-09-09T08:00:54;12.93;;;4.15;;
36257;SDS011;22294;52.044;4.582;2022-09-09T08:03:19;10.50;;;3.70;;
36257;SDS011;22294;52.044;4.582;2022-09-09T08:05:46;11.48;;;4.20;;
36257;SDS011;22294;52.044;4.582;2022-09-09T08:08:12;10.13;;;3.72;;
36257;SDS011;22294;52.044;4.582;2022-09-09T08:10:37;11.02;;;4.57;;
36257;SDS011;22294;52.044;4.582;2022-09-09T08:13:02;9.35;;;3.83;;
36257;SDS011;22294;52.044;4.582;2022-09-09T08:15:28;15.40;;;4.47;;
36257;SDS011;22294;52.044;4.582;2022-09-09T08:17:55;16.95;;;4.70;;
36257;SDS011;22294;52.044;4.582;2022-09-09T08:20:21;9.52;;;3.65;;
36257;SDS011;22294;52.044;4.582;2022-09-09T08:22:48;11.63;;;3.90;;
36257;SDS011;22294;52.044;4.582;2022-09-09T08:25:14;8.75;;;4.30;;
36257;SDS011;22294;52.044;4.582;2022-09-09T08:27:40;11.55;;;4.00;;
36257;SDS011;22294;52.044;4.582;2022-09-09T08:30:05;10.98;;;3.45;;
36257;SDS011;22294;52.044;4.582;2022-09-09T08:32:31;12.77;;;3.88;;
36257;SDS011;22294;52.044;4.582;2022-09-09T08:34:57;8.48;;;4.20;;
36257;SDS011;22294;52.044;4.582;2022-09-09T08:37:22;8.80;;;3.67;;
36257;SDS011;22294;52.044;4.582;2022-09-09T08:39:47;8.15;;;3.72;;
36257;SDS011;22294;52.044;4.582;2022-09-09T08:42:19;11.05;;;4.10;;
36257;SDS011;22294;52.044;4.582;2022-09-09T08:50:36;12.25;;;4.10;;
36257;SDS011;22294;52.044;4.582;2022-09-09T08:53:22;8.48;;;3.60;;
36257;SDS011;22294;52.044;4.582;2022-09-09T08:55:51;8.45;;;3.42;;
36257;SDS011;22294;52.044;4.582;2022-09-09T09:11:47;15.32;;;4.82;;
36257;SDS011;22294;52.044;4.582;2022-09-09T09:14:22;14.07;;;5.07;;
36257;SDS011;22294;52.044;4.582;2022-09-09T09:19:28;11.60;;;4.50;;
36257;SDS011;22294;52.044;4.582;2022-09-09T09:22:00;12.48;;;4.38;;
36257;SDS011;22294;52.044;4.582;2022-09-09T09:24:41;9.48;;;4.57;;
36257;SDS011;22294;52.044;4.582;2022-09-09T09:27:18;14.48;;;4.50;;
36257;SDS011;22294;52.044;4.582;2022-09-09T09:30:23;12.98;;;5.22;;
36257;SDS011;22294;52.044;4.582;2022-09-09T09:33:02;11.93;;;4.20;;
36257;SDS011;22294;52.044;4.582;2022-09-09T09:35:31;11.45;;;4.38;;
36257;SDS011;22294;52.044;4.582;2022-09-09T09:37:56;9.45;;;4.20;;
36257;SDS011;22294;52.044;4.582;2022-09-09T09:40:22;14.10;;;5.15;;
36257;SDS011;22294;52.044;4.582;2022-09-09T09:42:52;10.05;;;4.38;;
36257;SDS011;22294;52.044;4.582;2022-09-09T09:47:57;10.30;;;4.88;;
36257;SDS011;22294;52.044;4.582;2022-09-09T09:52:56;12.20;;;4.67;;
36257;SDS011;22294;52.044;4.582;2022-09-09T09:55:26;10.90;;;3.63;;
36257;SDS011;22294;52.044;4.582;2022-09-09T09:58:00;10.90;;;3.67;;
36257;SDS011;22294;52.044;4.582;2022-09-09T10:00:26;7.85;;;3.20;;
36257;SDS011;22294;52.044;4.582;2022-09-09T10:02:52;10.30;;;3.78;;
36257;SDS011;22294;52.044;4.582;2022-09-09T10:05:27;10.00;;;3.47;;
36257;SDS011;22294;52.044;4.582;2022-09-09T10:21:31;9.30;;;3.33;;
36257;SDS011;22294;52.044;4.582;2022-09-09T10:24:03;9.48;;;3.25;;
36257;SDS011;22294;52.044;4.582;2022-09-09T10:49:29;6.45;;;2.72;;
36257;SDS011;22294;52.044;4.582;2022-09-09T10:57:45;7.32;;;2.45;;
36257;SDS011;22294;52.044;4.582;2022-09-09T11:00:21;10.38;;;2.90;;
36257;SDS011;22294;52.044;4.582;2022-09-09T11:02:56;8.55;;;3.05;;
36257;SDS011;22294;52.044;4.582;2022-09-09T11:05:40;9.57;;;2.95;;
36257;SDS011;22294;52.044;4.582;2022-09-09T11:10:49;8.32;;;3.00;;
36257;SDS011;22294;52.044;4.582;2022-09-09T11:13:25;5.15;;;2.92;;
36257;SDS011;22294;52.044;4.582;2022-09-09T11:16:05;6.78;;;3.25;;
36257;SDS011;22294;52.044;4.582;2022-09-09T11:18:43;6.40;;;3.28;;
36257;SDS011;22294;52.044;4.582;2022-09-09T11:21:14;8.45;;;3.28;;
36257;SDS011;22294;52.044;4.582;2022-09-09T11:23:59;9.48;;;3.55;;
36257;SDS011;22294;52.044;4.582;2022-09-09T11:26:47;9.13;;;3.90;;
36257;SDS011;22294;52.044;4.582;2022-09-09T11:29:26;8.73;;;3.20;;
36257;SDS011;22294;52.044;4.582;2022-09-09T11:32:15;7.80;;;3.53;;
36257;SDS011;22294;52.044;4.582;2022-09-09T11:34:50;7.05;;;3.40;;
36257;SDS011;22294;52.044;4.582;2022-09-09T11:37:23;6.82;;;3.13;;
36257;SDS011;22294;52.044;4.582;2022-09-09T11:40:23;9.02;;;3.28;;
36257;SDS011;22294;52.044;4.582;2022-09-09T11:42:59;7.97;;;3.10;;
36257;SDS011;22294;52.044;4.582;2022-09-09T11:45:28;4.65;;;2.17;;
36257;SDS011;22294;52.044;4.582;2022-09-09T11:47:59;6.32;;;2.90;;
36257;SDS011;22294;52.044;4.582;2022-09-09T11:52:51;7.73;;;2.70;;
36257;SDS011;22294;52.044;4.582;2022-09-09T11:55:28;7.30;;;2.75;;
36257;SDS011;22294;52.044;4.582;2022-09-09T11:58:16;4.25;;;2.60;;
36257;SDS011;22294;52.044;4.582;2022-09-09T12:00:44;6.40;;;2.53;;
36257;SDS011;22294;52.044;4.582;2022-09-09T12:05:59;8.38;;;3.20;;
36257;SDS011;22294;52.044;4.582;2022-09-09T12:08:34;11.18;;;3.03;;
36257;SDS011;22294;52.044;4.582;2022-09-09T12:11:02;8.48;;;3.40;;
36257;SDS011;22294;52.044;4.582;2022-09-09T12:13:29;12.02;;;3.63;;
36257;SDS011;22294;52.044;4.582;2022-09-09T12:15:56;8.45;;;3.70;;
36257;SDS011;22294;52.044;4.582;2022-09-09T12:18:36;8.77;;;3.80;;
36257;SDS011;22294;52.044;4.582;2022-09-09T12:24:10;8.68;;;3.55;;
36257;SDS011;22294;52.044;4.582;2022-09-09T12:26:43;11.13;;;3.28;;
36257;SDS011;22294;52.044;4.582;2022-09-09T12:32:15;7.07;;;3.20;;
36257;SDS011;22294;52.044;4.582;2022-09-09T12:37:39;9.57;;;3.00;;
36257;SDS011;22294;52.044;4.582;2022-09-09T12:40:23;7.22;;;3.47;;
36257;SDS011;22294;52.044;4.582;2022-09-09T12:42:50;9.35;;;3.22;;
36257;SDS011;22294;52.044;4.582;2022-09-09T12:45:17;4.80;;;2.63;;
36257;SDS011;22294;52.044;4.582;2022-09-09T12:47:51;6.80;;;2.72;;
36257;SDS011;22294;52.044;4.582;2022-09-09T12:50:22;5.40;;;2.50;;
36257;SDS011;22294;52.044;4.582;2022-09-09T12:52:53;7.63;;;2.70;;
36257;SDS011;22294;52.044;4.582;2022-09-09T12:55:32;5.97;;;2.80;;
36257;SDS011;22294;52.044;4.582;2022-09-09T12:58:01;7.55;;;2.95;;
36257;SDS011;22294;52.044;4.582;2022-09-09T13:02:58;3.85;;;2.47;;
36257;SDS011;22294;52.044;4.582;2022-09-09T13:05:39;8.80;;;2.78;;
36257;SDS011;22294;52.044;4.582;2022-09-09T13:08:05;5.88;;;2.47;;
36257;SDS011;22294;52.044;4.582;2022-09-09T13:10:34;6.32;;;2.90;;
36257;SDS011;22294;52.044;4.582;2022-09-09T13:13:12;5.70;;;3.20;;
36257;SDS011;22294;52.044;4.582;2022-09-09T13:15:47;4.60;;;2.25;;
36257;SDS011;22294;52.044;4.582;2022-09-09T13:18:31;7.32;;;2.35;;
36257;SDS011;22294;52.044;4.582;2022-09-09T13:20:59;4.93;;;2.03;;
36257;SDS011;22294;52.044;4.582;2022-09-09T13:23:34;7.68;;;3.88;;
36257;SDS011;22294;52.044;4.582;2022-09-09T13:26:03;4.53;;;2.00;;
36257;SDS011;22294;52.044;4.582;2022-09-09T13:28:48;5.40;;;1.92;;
36257;SDS011;22294;52.044;4.582;2022-09-09T13:31:24;3.85;;;1.50;;
36257;SDS011;22294;52.044;4.582;2022-09-09T13:33:54;6.07;;;2.22;;
36257;SDS011;22294;52.044;4.582;2022-09-09T13:36:29;4.93;;;2.03;;
36257;SDS011;22294;52.044;4.582;2022-09-09T13:38:56;3.60;;;1.45;;
36257;SDS011;22294;52.044;4.582;2022-09-09T13:41:35;5.43;;;1.40;;
36257;SDS011;22294;52.044;4.582;2022-09-09T13:44:02;3.42;;;1.42;;
36257;SDS011;22294;52.044;4.582;2022-09-09T13:46:35;4.72;;;1.75;;
36257;SDS011;22294;52.044;4.582;2022-09-09T13:49:23;3.88;;;1.23;;
36257;SDS011;22294;52.044;4.582;2022-09-09T13:51:49;7.10;;;1.40;;
36257;SDS011;22294;52.044;4.582;2022-09-09T13:54:18;4.45;;;1.50;;
36257;SDS011;22294;52.044;4.582;2022-09-09T13:56:45;5.00;;;1.60;;
36257;SDS011;22294;52.044;4.582;2022-09-09T13:59:12;10.65;;;2.40;;
36257;SDS011;22294;52.044;4.582;2022-09-09T14:01:42;6.28;;;1.67;;
36257;SDS011;22294;52.044;4.582;2022-09-09T14:04:08;3.53;;;1.63;;
36257;SDS011;22294;52.044;4.582;2022-09-09T14:06:35;4.93;;;1.90;;
36257;SDS011;22294;52.044;4.582;2022-09-09T14:09:03;5.85;;;2.10;;
36257;SDS011;22294;52.044;4.582;2022-09-09T14:11:29;9.77;;;5.45;;
36257;SDS011;22294;52.044;4.582;2022-09-09T14:13:54;3.42;;;1.67;;
36257;SDS011;22294;52.044;4.582;2022-09-09T14:16:21;3.92;;;1.88;;
36257;SDS011;22294;52.044;4.582;2022-09-09T14:18:46;4.13;;;1.80;;
36257;SDS011;22294;52.044;4.582;2022-09-09T14:21:12;3.42;;;1.70;;
36257;SDS011;22294;52.044;4.582;2022-09-09T14:23:37;4.45;;;1.48;;
36257;SDS011;22294;52.044;4.582;2022-09-09T14:26:03;3.35;;;1.25;;
36257;SDS011;22294;52.044;4.582;2022-09-09T14:28:29;3.88;;;1.15;;
36257;SDS011;22294;52.044;4.582;2022-09-09T14:30:55;2.13;;;1.10;;
36257;SDS011;22294;52.044;4.582;2022-09-09T14:33:25;4.60;;;1.33;;
36257;SDS011;22294;52.044;4.582;2022-09-09T14:35:55;3.25;;;1.33;;
36257;SDS011;22294;52.044;4.582;2022-09-09T14:38:21;3.20;;;1.13;;
36257;SDS011;22294;52.044;4.582;2022-09-09T14:40:46;5.85;;;1.30;;
36257;SDS011;22294;52.044;4.582;2022-09-09T14:43:12;3.63;;;1.50;;
36257;SDS011;22294;52.044;4.582;2022-09-09T14:45:37;7.95;;;1.65;;
36257;SDS011;22294;52.044;4.582;2022-09-09T14:48:03;4.07;;;1.52;;
36257;SDS011;22294;52.044;4.582;2022-09-09T14:50:28;4.68;;;1.25;;
36257;SDS011;22294;52.044;4.582;2022-09-09T14:52:53;3.72;;;1.60;;
36257;SDS011;22294;52.044;4.582;2022-09-09T14:55:19;6.72;;;1.77;;
36257;SDS011;22294;52.044;4.582;2022-09-09T14:57:44;5.90;;;1.60;;
36257;SDS011;22294;52.044;4.582;2022-09-09T15:00:10;6.45;;;1.90;;
36257;SDS011;22294;52.044;4.582;2022-09-09T15:02:36;7.10;;;1.55;;
36257;SDS011;22294;52.044;4.582;2022-09-09T15:05:02;6.57;;;1.83;;
36257;SDS011;22294;52.044;4.582;2022-09-09T15:07:28;3.45;;;1.20;;
36257;SDS011;22294;52.044;4.582;2022-09-09T15:09:53;6.13;;;1.27;;
36257;SDS011;22294;52.044;4.582;2022-09-09T15:12:19;4.13;;;1.23;;
36257;SDS011;22294;52.044;4.582;2022-09-09T15:14:45;6.72;;;1.30;;
36257;SDS011;22294;52.044;4.582;2022-09-09T15:17:11;5.80;;;1.48;;
36257;SDS011;22294;52.044;4.582;2022-09-09T15:19:37;6.45;;;1.55;;
36257;SDS011;22294;52.044;4.582;2022-09-09T15:22:02;7.35;;;1.70;;
36257;SDS011;22294;52.044;4.582;2022-09-09T15:24:30;6.20;;;1.70;;
36257;SDS011;22294;52.044;4.582;2022-09-09T15:26:56;4.60;;;1.00;;
36257;SDS011;22294;52.044;4.582;2022-09-09T15:29:22;3.78;;;1.48;;
36257;SDS011;22294;52.044;4.582;2022-09-09T15:31:48;8.48;;;1.95;;
36257;SDS011;22294;52.044;4.582;2022-09-09T15:34:13;6.30;;;1.92;;
36257;SDS011;22294;52.044;4.582;2022-09-09T15:36:44;6.78;;;1.45;;
36257;SDS011;22294;52.044;4.582;2022-09-09T15:39:14;4.07;;;1.10;;
36257;SDS011;22294;52.044;4.582;2022-09-09T15:41:41;6.03;;;1.10;;
36257;SDS011;22294;52.044;4.582;2022-09-09T15:44:11;3.25;;;1.08;;
36257;SDS011;22294;52.044;4.582;2022-09-09T15:49:10;3.70;;;1.73;;
36257;SDS011;22294;52.044;4.582;2022-09-09T15:51:44;5.47;;;1.60;;
36257;SDS011;22294;52.044;4.582;2022-09-09T15:54:12;4.53;;;1.58;;
36257;SDS011;22294;52.044;4.582;2022-09-09T15:56:42;5.97;;;1.85;;
36257;SDS011;22294;52.044;4.582;2022-09-09T15:59:08;9.15;;;2.55;;
36257;SDS011;22294;52.044;4.582;2022-09-09T16:01:34;8.07;;;2.83;;
36257;SDS011;22294;52.044;4.582;2022-09-09T16:04:01;10.38;;;2.95;;
36257;SDS011;22294;52.044;4.582;2022-09-09T16:06:27;8.13;;;2.42;;
36257;SDS011;22294;52.044;4.582;2022-09-09T16:08:53;8.25;;;2.85;;
36257;SDS011;22294;52.044;4.582;2022-09-09T16:13:47;5.72;;;2.20;;
36257;SDS011;22294;52.044;4.582;2022-09-09T16:16:14;6.22;;;2.20;;
36257;SDS011;22294;52.044;4.582;2022-09-09T16:18:43;6.78;;;2.53;;
36257;SDS011;22294;52.044;4.582;2022-09-09T16:21:18;9.03;;;3.40;;
36257;SDS011;22294;52.044;4.582;2022-09-09T16:23:49;7.50;;;3.53;;
36257;SDS011;22294;52.044;4.582;2022-09-09T16:26:16;11.07;;;3.58;;
36257;SDS011;22294;52.044;4.582;2022-09-09T16:28:42;7.70;;;4.07;;
36257;SDS011;22294;52.044;4.582;2022-09-09T16:31:09;12.07;;;4.65;;
36257;SDS011;22294;52.044;4.582;2022-09-09T16:33:37;9.48;;;4.93;;
36257;SDS011;22294;52.044;4.582;2022-09-09T16:36:09;7.70;;;4.72;;
36257;SDS011;22294;52.044;4.582;2022-09-09T16:38:36;10.25;;;4.57;;
36257;SDS011;22294;52.044;4.582;2022-09-09T16:41:02;8.27;;;4.65;;
36257;SDS011;22294;52.044;4.582;2022-09-09T16:43:30;8.90;;;5.38;;
36257;SDS011;22294;52.044;4.582;2022-09-09T16:45:56;7.90;;;5.07;;
36257;SDS011;22294;52.044;4.582;2022-09-09T16:48:22;9.02;;;4.72;;
36257;SDS011;22294;52.044;4.582;2022-09-09T16:50:47;7.28;;;5.03;;
36257;SDS011;22294;52.044;4.582;2022-09-09T16:53:13;8.07;;;4.75;;
36257;SDS011;22294;52.044;4.582;2022-09-09T16:55:40;10.35;;;5.18;;
36257;SDS011;22294;52.044;4.582;2022-09-09T16:58:07;9.02;;;5.13;;
36257;SDS011;22294;52.044;4.582;2022-09-09T17:00:35;7.82;;;4.97;;
36257;SDS011;22294;52.044;4.582;2022-09-09T17:03:00;8.15;;;4.30;;
36257;SDS011;22294;52.044;4.582;2022-09-09T17:05:25;9.07;;;4.55;;
36257;SDS011;22294;52.044;4.582;2022-09-09T17:07:50;5.65;;;3.65;;